sensor_id;sensor_type;location;lat;lon;timestamp;P1;durP1;ratioP1;P2;durP2;ratioP2
3433;SDS011;1730;41.932;25.548;2023-11-19T00:01:27;1.30;;;1.17;;
3433;SDS011;1730;41.932;25.548;2023-11-19T00:03:53;1.60;;;1.47;;
3433;SDS011;1730;41.932;25.548;2023-11-19T00:06:18;1.40;;;1.30;;
3433;SDS011;1730;41.932;25.548;2023-11-19T00:08:44;1.60;;;1.50;;
3433;SDS011;1730;41.932;25.548;2023-11-19T00:11:10;1.70;;;1.60;;
3433;SDS011;1730;41.932;25.548;2023-11-19T00:13:36;1.60;;;1.10;;
3433;SDS011;1730;41.932;25.548;2023-11-19T00:16:02;1.47;;;1.37;;
3433;SDS011;1730;41.932;25.548;2023-11-19T00:18:29;1.30;;;1.20;;
3433;SDS011;1730;41.932;25.548;2023-11-19T00:20:55;1.83;;;1.50;;
3433;SDS011;1730;41.932;25.548;2023-11-19T00:23:20;4.43;;;1.60;;
3433;SDS011;1730;41.932;25.548;2023-11-19T00:25:46;1.93;;;1.63;;
3433;SDS011;1730;41.932;25.548;2023-11-19T00:28:13;4.00;;;1.63;;
3433;SDS011;1730;41.932;25.548;2023-11-19T00:30:38;1.60;;;1.43;;
3433;SDS011;1730;41.932;25.548;2023-11-19T00:33:05;1.43;;;1.33;;
3433;SDS011;1730;41.932;25.548;2023-11-19T00:35:32;1.33;;;1.23;;
3433;SDS011;1730;41.932;25.548;2023-11-19T00:37:58;1.50;;;1.40;;
3433;SDS011;1730;41.932;25.548;2023-11-19T00:40:23;2.73;;;1.37;;
3433;SDS011;1730;41.932;25.548;2023-11-19T00:42:49;3.93;;;1.30;;
3433;SDS011;1730;41.932;25.548;2023-11-19T00:45:15;1.50;;;1.40;;
3433;SDS011;1730;41.932;25.548;2023-11-19T00:47:41;1.50;;;1.40;;
3433;SDS011;1730;41.932;25.548;2023-11-19T00:50:07;5.27;;;1.70;;
3433;SDS011;1730;41.932;25.548;2023-11-19T00:52:36;1.73;;;1.40;;
3433;SDS011;1730;41.932;25.548;2023-11-19T00:55:03;1.50;;;1.30;;
3433;SDS011;1730;41.932;25.548;2023-11-19T00:57:30;1.50;;;1.37;;
3433;SDS011;1730;41.932;25.548;2023-11-19T01:00:01;1.60;;;1.40;;
3433;SDS011;1730;41.932;25.548;2023-11-19T01:02:34;1.70;;;1.60;;
3433;SDS011;1730;41.932;25.548;2023-11-19T01:05:00;2.63;;;1.83;;
3433;SDS011;1730;41.932;25.548;2023-11-19T01:07:25;1.70;;;1.60;;
3433;SDS011;1730;41.932;25.548;2023-11-19T01:09:52;1.40;;;1.30;;
3433;SDS011;1730;41.932;25.548;2023-11-19T01:12:17;1.40;;;1.17;;
3433;SDS011;1730;41.932;25.548;2023-11-19T01:14:43;1.30;;;1.20;;
3433;SDS011;1730;41.932;25.548;2023-11-19T01:17:08;1.50;;;1.40;;
3433;SDS011;1730;41.932;25.548;2023-11-19T01:19:34;1.50;;;1.40;;
3433;SDS011;1730;41.932;25.548;2023-11-19T01:21:59;1.63;;;1.50;;
3433;SDS011;1730;41.932;25.548;2023-11-19T01:24:25;1.63;;;1.53;;
3433;SDS011;1730;41.932;25.548;2023-11-19T01:26:53;2.23;;;1.87;;
3433;SDS011;1730;41.932;25.548;2023-11-19T01:29:19;1.70;;;1.47;;
3433;SDS011;1730;41.932;25.548;2023-11-19T01:31:45;2.27;;;2.07;;
3433;SDS011;1730;41.932;25.548;2023-11-19T01:34:14;2.43;;;1.70;;
3433;SDS011;1730;41.932;25.548;2023-11-19T01:36:39;1.73;;;1.40;;
3433;SDS011;1730;41.932;25.548;2023-11-19T01:39:05;1.53;;;1.43;;
3433;SDS011;1730;41.932;25.548;2023-11-19T01:41:35;1.30;;;1.20;;
3433;SDS011;1730;41.932;25.548;2023-11-19T01:44:01;1.30;;;1.20;;
3433;SDS011;1730;41.932;25.548;2023-11-19T01:46:27;1.57;;;1.30;;
3433;SDS011;1730;41.932;25.548;2023-11-19T01:48:54;2.00;;;1.30;;
3433;SDS011;1730;41.932;25.548;2023-11-19T01:51:21;3.30;;;1.60;;
3433;SDS011;1730;41.932;25.548;2023-11-19T01:53:47;2.93;;;1.53;;
3433;SDS011;1730;41.932;25.548;2023-11-19T01:56:14;1.50;;;1.40;;
3433;SDS011;1730;41.932;25.548;2023-11-19T01:58:41;3.20;;;1.30;;
3433;SDS011;1730;41.932;25.548;2023-11-19T02:01:10;1.37;;;1.27;;
3433;SDS011;1730;41.932;25.548;2023-11-19T02:03:36;1.50;;;1.40;;
3433;SDS011;1730;41.932;25.548;2023-11-19T02:06:02;1.40;;;1.30;;
3433;SDS011;1730;41.932;25.548;2023-11-19T02:08:29;1.97;;;1.40;;
3433;SDS011;1730;41.932;25.548;2023-11-19T02:10:55;1.80;;;1.70;;
3433;SDS011;1730;41.932;25.548;2023-11-19T02:13:25;2.17;;;1.90;;
3433;SDS011;1730;41.932;25.548;2023-11-19T02:15:52;1.47;;;1.37;;
3433;SDS011;1730;41.932;25.548;2023-11-19T02:18:21;1.60;;;1.50;;
3433;SDS011;1730;41.932;25.548;2023-11-19T02:20:55;1.40;;;1.30;;
3433;SDS011;1730;41.932;25.548;2023-11-19T02:23:28;1.80;;;1.70;;
3433;SDS011;1730;41.932;25.548;2023-11-19T02:28:43;1.43;;;1.33;;
3433;SDS011;1730;41.932;25.548;2023-11-19T02:31:09;1.60;;;1.50;;
3433;SDS011;1730;41.932;25.548;2023-11-19T02:33:39;1.50;;;1.40;;
3433;SDS011;1730;41.932;25.548;2023-11-19T02:36:05;1.50;;;1.40;;
3433;SDS011;1730;41.932;25.548;2023-11-19T02:38:35;1.50;;;1.30;;
3433;SDS011;1730;41.932;25.548;2023-11-19T02:41:04;1.70;;;1.60;;
3433;SDS011;1730;41.932;25.548;2023-11-19T02:43:31;1.43;;;1.33;;
3433;SDS011;1730;41.932;25.548;2023-11-19T02:46:00;1.30;;;1.20;;
3433;SDS011;1730;41.932;25.548;2023-11-19T02:48:27;11.30;;;1.50;;
3433;SDS011;1730;41.932;25.548;2023-11-19T02:50:53;1.37;;;1.27;;
3433;SDS011;1730;41.932;25.548;2023-11-19T02:53:18;1.57;;;1.47;;
3433;SDS011;1730;41.932;25.548;2023-11-19T02:55:47;1.60;;;1.50;;
3433;SDS011;1730;41.932;25.548;2023-11-19T02:58:15;1.80;;;1.57;;
3433;SDS011;1730;41.932;25.548;2023-11-19T03:00:49;2.60;;;2.10;;
3433;SDS011;1730;41.932;25.548;2023-11-19T03:03:26;1.63;;;1.53;;
3433;SDS011;1730;41.932;25.548;2023-11-19T03:06:04;2.00;;;1.50;;
3433;SDS011;1730;41.932;25.548;2023-11-19T03:08:30;2.00;;;1.67;;
3433;SDS011;1730;41.932;25.548;2023-11-19T03:10:56;1.80;;;1.70;;
3433;SDS011;1730;41.932;25.548;2023-11-19T03:13:21;1.40;;;1.30;;
3433;SDS011;1730;41.932;25.548;2023-11-19T03:15:47;1.60;;;1.50;;
3433;SDS011;1730;41.932;25.548;2023-11-19T03:18:12;1.83;;;1.40;;
3433;SDS011;1730;41.932;25.548;2023-11-19T03:20:38;1.67;;;1.57;;
3433;SDS011;1730;41.932;25.548;2023-11-19T03:23:03;1.40;;;1.30;;
3433;SDS011;1730;41.932;25.548;2023-11-19T03:25:29;2.17;;;1.60;;
3433;SDS011;1730;41.932;25.548;2023-11-19T03:27:59;2.83;;;1.60;;
3433;SDS011;1730;41.932;25.548;2023-11-19T03:30:29;1.80;;;1.70;;
3433;SDS011;1730;41.932;25.548;2023-11-19T03:32:55;1.70;;;1.60;;
3433;SDS011;1730;41.932;25.548;2023-11-19T03:35:22;2.07;;;1.90;;
3433;SDS011;1730;41.932;25.548;2023-11-19T03:37:48;2.60;;;1.50;;
3433;SDS011;1730;41.932;25.548;2023-11-19T03:40:14;1.67;;;1.57;;
3433;SDS011;1730;41.932;25.548;2023-11-19T03:42:40;7.73;;;4.80;;
3433;SDS011;1730;41.932;25.548;2023-11-19T03:45:08;2.90;;;1.60;;
3433;SDS011;1730;41.932;25.548;2023-11-19T03:47:34;1.87;;;1.70;;
3433;SDS011;1730;41.932;25.548;2023-11-19T03:50:00;1.93;;;1.83;;
3433;SDS011;1730;41.932;25.548;2023-11-19T03:52:26;2.47;;;2.27;;
3433;SDS011;1730;41.932;25.548;2023-11-19T03:54:52;6.43;;;2.40;;
3433;SDS011;1730;41.932;25.548;2023-11-19T03:57:20;1.97;;;1.87;;
3433;SDS011;1730;41.932;25.548;2023-11-19T03:59:46;2.30;;;2.10;;
3433;SDS011;1730;41.932;25.548;2023-11-19T04:02:11;2.20;;;2.10;;
3433;SDS011;1730;41.932;25.548;2023-11-19T04:04:37;2.00;;;1.90;;
3433;SDS011;1730;41.932;25.548;2023-11-19T04:07:04;2.17;;;1.97;;
3433;SDS011;1730;41.932;25.548;2023-11-19T04:09:30;1.83;;;1.73;;
3433;SDS011;1730;41.932;25.548;2023-11-19T04:11:59;3.63;;;2.10;;
3433;SDS011;1730;41.932;25.548;2023-11-19T04:14:26;2.10;;;1.90;;
3433;SDS011;1730;41.932;25.548;2023-11-19T04:16:52;2.20;;;2.10;;
3433;SDS011;1730;41.932;25.548;2023-11-19T04:19:18;2.33;;;2.13;;
3433;SDS011;1730;41.932;25.548;2023-11-19T04:21:44;2.03;;;1.93;;
3433;SDS011;1730;41.932;25.548;2023-11-19T04:24:10;3.00;;;2.70;;
3433;SDS011;1730;41.932;25.548;2023-11-19T04:26:42;2.80;;;2.53;;
3433;SDS011;1730;41.932;25.548;2023-11-19T04:29:13;4.10;;;2.23;;
3433;SDS011;1730;41.932;25.548;2023-11-19T04:31:42;1.90;;;1.80;;
3433;SDS011;1730;41.932;25.548;2023-11-19T04:34:09;3.40;;;2.63;;
3433;SDS011;1730;41.932;25.548;2023-11-19T04:36:36;3.70;;;2.30;;
3433;SDS011;1730;41.932;25.548;2023-11-19T04:39:03;2.60;;;2.40;;
3433;SDS011;1730;41.932;25.548;2023-11-19T04:41:50;2.70;;;2.50;;
3433;SDS011;1730;41.932;25.548;2023-11-19T04:44:19;2.50;;;2.30;;
3433;SDS011;1730;41.932;25.548;2023-11-19T04:46:47;2.70;;;2.50;;
3433;SDS011;1730;41.932;25.548;2023-11-19T04:49:13;2.60;;;2.40;;
3433;SDS011;1730;41.932;25.548;2023-11-19T04:51:42;3.50;;;2.70;;
3433;SDS011;1730;41.932;25.548;2023-11-19T04:54:09;2.40;;;2.30;;
3433;SDS011;1730;41.932;25.548;2023-11-19T04:56:38;2.60;;;2.40;;
3433;SDS011;1730;41.932;25.548;2023-11-19T04:59:04;3.13;;;2.93;;
3433;SDS011;1730;41.932;25.548;2023-11-19T05:01:31;2.60;;;2.43;;
3433;SDS011;1730;41.932;25.548;2023-11-19T05:03:57;2.80;;;2.60;;
3433;SDS011;1730;41.932;25.548;2023-11-19T05:06:28;2.80;;;2.60;;
3433;SDS011;1730;41.932;25.548;2023-11-19T05:08:55;2.67;;;2.47;;
3433;SDS011;1730;41.932;25.548;2023-11-19T05:11:22;3.27;;;3.07;;
3433;SDS011;1730;41.932;25.548;2023-11-19T05:13:47;4.57;;;4.07;;
3433;SDS011;1730;41.932;25.548;2023-11-19T05:16:13;3.50;;;3.20;;
3433;SDS011;1730;41.932;25.548;2023-11-19T05:18:42;2.80;;;2.53;;
3433;SDS011;1730;41.932;25.548;2023-11-19T05:21:07;6.00;;;2.90;;
3433;SDS011;1730;41.932;25.548;2023-11-19T05:23:33;2.63;;;2.43;;
3433;SDS011;1730;41.932;25.548;2023-11-19T05:26:02;2.40;;;2.20;;
3433;SDS011;1730;41.932;25.548;2023-11-19T05:28:27;2.50;;;2.30;;
3433;SDS011;1730;41.932;25.548;2023-11-19T05:30:54;2.50;;;2.40;;
3433;SDS011;1730;41.932;25.548;2023-11-19T05:33:19;3.00;;;2.80;;
3433;SDS011;1730;41.932;25.548;2023-11-19T05:35:45;2.80;;;2.60;;
3433;SDS011;1730;41.932;25.548;2023-11-19T05:38:11;3.00;;;2.80;;
3433;SDS011;1730;41.932;25.548;2023-11-19T05:40:37;3.00;;;2.47;;
3433;SDS011;1730;41.932;25.548;2023-11-19T05:43:04;2.83;;;2.63;;
3433;SDS011;1730;41.932;25.548;2023-11-19T05:45:30;2.87;;;2.50;;
3433;SDS011;1730;41.932;25.548;2023-11-19T05:47:57;3.27;;;2.97;;
3433;SDS011;1730;41.932;25.548;2023-11-19T05:50:22;3.07;;;2.87;;
3433;SDS011;1730;41.932;25.548;2023-11-19T05:52:49;4.43;;;3.30;;
3433;SDS011;1730;41.932;25.548;2023-11-19T05:55:14;3.00;;;2.80;;
3433;SDS011;1730;41.932;25.548;2023-11-19T05:57:40;4.20;;;3.80;;
3433;SDS011;1730;41.932;25.548;2023-11-19T06:00:06;5.30;;;3.60;;
3433;SDS011;1730;41.932;25.548;2023-11-19T06:02:33;5.00;;;3.70;;
3433;SDS011;1730;41.932;25.548;2023-11-19T06:04:59;4.07;;;3.67;;
3433;SDS011;1730;41.932;25.548;2023-11-19T06:07:26;4.00;;;3.70;;
3433;SDS011;1730;41.932;25.548;2023-11-19T06:09:51;5.33;;;4.13;;
3433;SDS011;1730;41.932;25.548;2023-11-19T06:12:17;3.63;;;3.33;;
3433;SDS011;1730;41.932;25.548;2023-11-19T06:14:43;3.70;;;3.50;;
3433;SDS011;1730;41.932;25.548;2023-11-19T06:17:08;4.63;;;4.20;;
3433;SDS011;1730;41.932;25.548;2023-11-19T06:19:36;3.93;;;3.30;;
3433;SDS011;1730;41.932;25.548;2023-11-19T06:22:02;3.33;;;2.93;;
3433;SDS011;1730;41.932;25.548;2023-11-19T06:24:27;2.50;;;2.30;;
3433;SDS011;1730;41.932;25.548;2023-11-19T06:26:53;3.37;;;2.63;;
3433;SDS011;1730;41.932;25.548;2023-11-19T06:29:19;2.60;;;2.40;;
3433;SDS011;1730;41.932;25.548;2023-11-19T06:31:44;2.87;;;2.50;;
3433;SDS011;1730;41.932;25.548;2023-11-19T06:34:11;3.37;;;3.17;;
3433;SDS011;1730;41.932;25.548;2023-11-19T06:36:37;2.97;;;2.77;;
3433;SDS011;1730;41.932;25.548;2023-11-19T06:39:03;3.30;;;3.10;;
3433;SDS011;1730;41.932;25.548;2023-11-19T06:41:29;3.40;;;3.20;;
3433;SDS011;1730;41.932;25.548;2023-11-19T06:43:54;4.00;;;3.70;;
3433;SDS011;1730;41.932;25.548;2023-11-19T06:46:20;3.60;;;3.30;;
3433;SDS011;1730;41.932;25.548;2023-11-19T06:48:45;3.00;;;2.80;;
3433;SDS011;1730;41.932;25.548;2023-11-19T06:51:11;2.90;;;2.70;;
3433;SDS011;1730;41.932;25.548;2023-11-19T06:53:37;2.40;;;2.30;;
3433;SDS011;1730;41.932;25.548;2023-11-19T06:56:06;3.70;;;2.70;;
3433;SDS011;1730;41.932;25.548;2023-11-19T06:58:46;2.73;;;2.17;;
3433;SDS011;1730;41.932;25.548;2023-11-19T07:01:13;2.57;;;2.37;;
3433;SDS011;1730;41.932;25.548;2023-11-19T07:03:38;3.90;;;3.60;;
3433;SDS011;1730;41.932;25.548;2023-11-19T07:06:04;2.40;;;2.30;;
3433;SDS011;1730;41.932;25.548;2023-11-19T07:08:30;2.70;;;2.50;;
3433;SDS011;1730;41.932;25.548;2023-11-19T07:10:56;3.90;;;3.40;;
3433;SDS011;1730;41.932;25.548;2023-11-19T07:13:21;3.83;;;3.53;;
3433;SDS011;1730;41.932;25.548;2023-11-19T07:15:47;2.80;;;2.60;;
3433;SDS011;1730;41.932;25.548;2023-11-19T07:18:13;3.27;;;3.07;;
3433;SDS011;1730;41.932;25.548;2023-11-19T07:20:39;3.00;;;2.80;;
3433;SDS011;1730;41.932;25.548;2023-11-19T07:23:05;3.33;;;3.07;;
3433;SDS011;1730;41.932;25.548;2023-11-19T07:25:31;2.63;;;2.43;;
3433;SDS011;1730;41.932;25.548;2023-11-19T07:27:56;2.80;;;2.60;;
3433;SDS011;1730;41.932;25.548;2023-11-19T07:30:22;4.17;;;3.07;;
3433;SDS011;1730;41.932;25.548;2023-11-19T07:32:47;2.30;;;2.20;;
3433;SDS011;1730;41.932;25.548;2023-11-19T07:35:13;2.50;;;2.40;;
3433;SDS011;1730;41.932;25.548;2023-11-19T07:37:41;2.73;;;2.53;;
3433;SDS011;1730;41.932;25.548;2023-11-19T07:40:08;2.47;;;2.27;;
3433;SDS011;1730;41.932;25.548;2023-11-19T07:42:33;2.93;;;2.20;;
3433;SDS011;1730;41.932;25.548;2023-11-19T07:44:59;2.20;;;2.10;;
3433;SDS011;1730;41.932;25.548;2023-11-19T07:47:25;2.47;;;2.27;;
3433;SDS011;1730;41.932;25.548;2023-11-19T07:49:50;3.00;;;2.27;;
3433;SDS011;1730;41.932;25.548;2023-11-19T07:52:16;3.00;;;2.80;;
3433;SDS011;1730;41.932;25.548;2023-11-19T07:54:42;2.60;;;2.40;;
3433;SDS011;1730;41.932;25.548;2023-11-19T07:57:07;3.03;;;2.83;;
3433;SDS011;1730;41.932;25.548;2023-11-19T07:59:33;3.30;;;3.00;;
3433;SDS011;1730;41.932;25.548;2023-11-19T08:01:58;2.63;;;2.43;;
3433;SDS011;1730;41.932;25.548;2023-11-19T08:04:24;2.97;;;2.77;;
3433;SDS011;1730;41.932;25.548;2023-11-19T08:06:51;3.83;;;2.53;;
3433;SDS011;1730;41.932;25.548;2023-11-19T08:11:47;2.10;;;2.00;;
3433;SDS011;1730;41.932;25.548;2023-11-19T08:14:15;4.63;;;2.63;;
3433;SDS011;1730;41.932;25.548;2023-11-19T08:16:40;2.40;;;2.20;;
3433;SDS011;1730;41.932;25.548;2023-11-19T08:19:06;2.70;;;2.50;;
3433;SDS011;1730;41.932;25.548;2023-11-19T08:21:32;2.90;;;2.70;;
3433;SDS011;1730;41.932;25.548;2023-11-19T08:23:57;2.37;;;2.17;;
3433;SDS011;1730;41.932;25.548;2023-11-19T08:26:24;2.57;;;2.37;;
3433;SDS011;1730;41.932;25.548;2023-11-19T08:28:51;4.03;;;2.47;;
3433;SDS011;1730;41.932;25.548;2023-11-19T08:31:18;5.10;;;2.43;;
3433;SDS011;1730;41.932;25.548;2023-11-19T08:33:44;2.27;;;2.17;;
3433;SDS011;1730;41.932;25.548;2023-11-19T08:36:14;3.87;;;2.90;;
3433;SDS011;1730;41.932;25.548;2023-11-19T08:38:40;2.73;;;2.53;;
3433;SDS011;1730;41.932;25.548;2023-11-19T08:41:07;4.73;;;2.20;;
3433;SDS011;1730;41.932;25.548;2023-11-19T08:43:32;4.13;;;2.43;;
3433;SDS011;1730;41.932;25.548;2023-11-19T08:45:58;2.40;;;2.27;;
3433;SDS011;1730;41.932;25.548;2023-11-19T08:48:23;2.00;;;1.90;;
3433;SDS011;1730;41.932;25.548;2023-11-19T08:50:51;2.10;;;2.00;;
3433;SDS011;1730;41.932;25.548;2023-11-19T08:53:16;2.30;;;2.10;;
3433;SDS011;1730;41.932;25.548;2023-11-19T08:55:42;2.80;;;2.60;;
3433;SDS011;1730;41.932;25.548;2023-11-19T08:58:07;2.13;;;1.93;;
3433;SDS011;1730;41.932;25.548;2023-11-19T09:00:33;2.23;;;2.03;;
3433;SDS011;1730;41.932;25.548;2023-11-19T09:02:59;2.30;;;2.10;;
3433;SDS011;1730;41.932;25.548;2023-11-19T09:05:24;2.53;;;2.33;;
3433;SDS011;1730;41.932;25.548;2023-11-19T09:07:50;1.73;;;1.63;;
3433;SDS011;1730;41.932;25.548;2023-11-19T09:10:15;2.10;;;1.90;;
3433;SDS011;1730;41.932;25.548;2023-11-19T09:12:41;2.23;;;2.03;;
3433;SDS011;1730;41.932;25.548;2023-11-19T09:15:06;2.63;;;2.43;;
3433;SDS011;1730;41.932;25.548;2023-11-19T09:17:32;2.90;;;2.70;;
3433;SDS011;1730;41.932;25.548;2023-11-19T09:19:58;2.30;;;2.10;;
3433;SDS011;1730;41.932;25.548;2023-11-19T09:22:24;2.30;;;2.10;;
3433;SDS011;1730;41.932;25.548;2023-11-19T09:24:49;2.67;;;2.47;;
3433;SDS011;1730;41.932;25.548;2023-11-19T09:27:15;3.27;;;2.97;;
3433;SDS011;1730;41.932;25.548;2023-11-19T09:29:41;2.90;;;2.07;;
3433;SDS011;1730;41.932;25.548;2023-11-19T09:32:08;2.20;;;2.10;;
3433;SDS011;1730;41.932;25.548;2023-11-19T09:34:33;2.43;;;2.23;;
3433;SDS011;1730;41.932;25.548;2023-11-19T09:36:59;2.57;;;2.10;;
3433;SDS011;1730;41.932;25.548;2023-11-19T09:39:25;2.30;;;2.10;;
3433;SDS011;1730;41.932;25.548;2023-11-19T09:41:51;3.43;;;2.30;;
3433;SDS011;1730;41.932;25.548;2023-11-19T09:44:19;2.60;;;2.40;;
3433;SDS011;1730;41.932;25.548;2023-11-19T09:46:47;2.67;;;2.47;;
3433;SDS011;1730;41.932;25.548;2023-11-19T09:49:15;3.03;;;2.73;;
3433;SDS011;1730;41.932;25.548;2023-11-19T09:51:46;8.20;;;3.23;;
3433;SDS011;1730;41.932;25.548;2023-11-19T09:54:12;2.60;;;2.40;;
3433;SDS011;1730;41.932;25.548;2023-11-19T09:56:38;4.23;;;2.77;;
3433;SDS011;1730;41.932;25.548;2023-11-19T09:59:04;2.70;;;2.50;;
3433;SDS011;1730;41.932;25.548;2023-11-19T10:01:30;2.50;;;2.30;;
3433;SDS011;1730;41.932;25.548;2023-11-19T10:03:57;2.93;;;2.73;;
3433;SDS011;1730;41.932;25.548;2023-11-19T10:06:22;2.70;;;2.50;;
3433;SDS011;1730;41.932;25.548;2023-11-19T10:08:51;2.63;;;2.33;;
3433;SDS011;1730;41.932;25.548;2023-11-19T10:11:17;5.23;;;2.33;;
3433;SDS011;1730;41.932;25.548;2023-11-19T10:13:43;10.20;;;3.67;;
3433;SDS011;1730;41.932;25.548;2023-11-19T10:16:10;2.50;;;2.30;;
3433;SDS011;1730;41.932;25.548;2023-11-19T10:18:42;2.63;;;2.43;;
3433;SDS011;1730;41.932;25.548;2023-11-19T10:21:13;2.50;;;2.37;;
3433;SDS011;1730;41.932;25.548;2023-11-19T10:26:19;2.40;;;2.30;;
3433;SDS011;1730;41.932;25.548;2023-11-19T10:28:46;2.50;;;2.30;;
3433;SDS011;1730;41.932;25.548;2023-11-19T10:31:13;4.03;;;2.30;;
3433;SDS011;1730;41.932;25.548;2023-11-19T10:33:39;3.13;;;2.33;;
3433;SDS011;1730;41.932;25.548;2023-11-19T10:36:05;2.40;;;2.20;;
3433;SDS011;1730;41.932;25.548;2023-11-19T10:38:31;3.63;;;1.73;;
3433;SDS011;1730;41.932;25.548;2023-11-19T10:40:56;2.10;;;1.90;;
3433;SDS011;1730;41.932;25.548;2023-11-19T10:43:22;2.20;;;2.00;;
3433;SDS011;1730;41.932;25.548;2023-11-19T10:45:48;3.10;;;2.40;;
3433;SDS011;1730;41.932;25.548;2023-11-19T10:48:14;3.20;;;2.47;;
3433;SDS011;1730;41.932;25.548;2023-11-19T10:50:41;2.70;;;2.50;;
3433;SDS011;1730;41.932;25.548;2023-11-19T10:53:10;2.70;;;2.50;;
3433;SDS011;1730;41.932;25.548;2023-11-19T10:55:38;2.40;;;2.20;;
3433;SDS011;1730;41.932;25.548;2023-11-19T10:58:05;2.53;;;2.33;;
3433;SDS011;1730;41.932;25.548;2023-11-19T11:00:39;3.50;;;2.33;;
3433;SDS011;1730;41.932;25.548;2023-11-19T11:03:17;2.33;;;2.17;;
3433;SDS011;1730;41.932;25.548;2023-11-19T11:05:49;2.20;;;2.10;;
3433;SDS011;1730;41.932;25.548;2023-11-19T11:08:19;3.03;;;2.80;;
3433;SDS011;1730;41.932;25.548;2023-11-19T11:10:46;2.40;;;2.30;;
3433;SDS011;1730;41.932;25.548;2023-11-19T11:13:18;3.87;;;3.00;;
3433;SDS011;1730;41.932;25.548;2023-11-19T11:15:45;3.93;;;3.63;;
3433;SDS011;1730;41.932;25.548;2023-11-19T11:18:12;16.60;;;2.50;;
3433;SDS011;1730;41.932;25.548;2023-11-19T11:20:38;2.90;;;2.43;;
3433;SDS011;1730;41.932;25.548;2023-11-19T11:34:39;2.90;;;2.37;;
3433;SDS011;1730;41.932;25.548;2023-11-19T11:37:19;5.80;;;2.23;;
3433;SDS011;1730;41.932;25.548;2023-11-19T11:39:52;2.60;;;2.40;;
3433;SDS011;1730;41.932;25.548;2023-11-19T11:45:00;3.23;;;3.03;;
3433;SDS011;1730;41.932;25.548;2023-11-19T11:50:10;2.80;;;2.60;;
3433;SDS011;1730;41.932;25.548;2023-11-19T11:58:12;2.40;;;2.20;;
3433;SDS011;1730;41.932;25.548;2023-11-19T12:00:39;3.10;;;2.80;;
3433;SDS011;1730;41.932;25.548;2023-11-19T12:03:06;5.03;;;2.53;;
3433;SDS011;1730;41.932;25.548;2023-11-19T12:05:45;8.70;;;6.43;;
3433;SDS011;1730;41.932;25.548;2023-11-19T12:08:11;2.77;;;2.43;;
3433;SDS011;1730;41.932;25.548;2023-11-19T12:10:44;2.63;;;2.43;;
3433;SDS011;1730;41.932;25.548;2023-11-19T12:13:15;3.07;;;2.87;;
3433;SDS011;1730;41.932;25.548;2023-11-19T12:18:27;3.00;;;2.70;;
3433;SDS011;1730;41.932;25.548;2023-11-19T12:20:54;3.00;;;2.80;;
3433;SDS011;1730;41.932;25.548;2023-11-19T12:23:21;5.90;;;3.03;;
3433;SDS011;1730;41.932;25.548;2023-11-19T12:25:47;3.23;;;3.03;;
3433;SDS011;1730;41.932;25.548;2023-11-19T12:28:13;2.60;;;2.40;;
3433;SDS011;1730;41.932;25.548;2023-11-19T12:30:43;2.83;;;2.63;;
3433;SDS011;1730;41.932;25.548;2023-11-19T12:33:09;2.73;;;2.53;;
3433;SDS011;1730;41.932;25.548;2023-11-19T12:35:42;2.90;;;2.70;;
3433;SDS011;1730;41.932;25.548;2023-11-19T12:38:19;2.93;;;2.73;;
3433;SDS011;1730;41.932;25.548;2023-11-19T12:40:46;2.57;;;2.37;;
3433;SDS011;1730;41.932;25.548;2023-11-19T12:43:20;3.07;;;2.87;;
3433;SDS011;1730;41.932;25.548;2023-11-19T12:45:49;2.50;;;2.40;;
3433;SDS011;1730;41.932;25.548;2023-11-19T12:48:15;2.37;;;2.17;;
3433;SDS011;1730;41.932;25.548;2023-11-19T12:53:47;3.33;;;3.13;;
3433;SDS011;1730;41.932;25.548;2023-11-19T12:56:15;3.00;;;2.80;;
3433;SDS011;1730;41.932;25.548;2023-11-19T12:58:41;3.50;;;3.07;;
3433;SDS011;1730;41.932;25.548;2023-11-19T13:01:08;2.50;;;2.40;;
3433;SDS011;1730;41.932;25.548;2023-11-19T13:03:37;4.30;;;4.00;;
3433;SDS011;1730;41.932;25.548;2023-11-19T13:06:04;3.27;;;3.07;;
3433;SDS011;1730;41.932;25.548;2023-11-19T13:08:39;2.87;;;2.67;;
3433;SDS011;1730;41.932;25.548;2023-11-19T13:11:08;3.37;;;3.07;;
3433;SDS011;1730;41.932;25.548;2023-11-19T13:13:53;4.73;;;4.37;;
3433;SDS011;1730;41.932;25.548;2023-11-19T13:16:35;3.17;;;2.97;;
3433;SDS011;1730;41.932;25.548;2023-11-19T13:19:02;2.87;;;2.57;;
3433;SDS011;1730;41.932;25.548;2023-11-19T13:21:30;3.30;;;3.10;;
3433;SDS011;1730;41.932;25.548;2023-11-19T13:23:57;2.83;;;2.63;;
3433;SDS011;1730;41.932;25.548;2023-11-19T13:26:23;2.80;;;2.60;;
3433;SDS011;1730;41.932;25.548;2023-11-19T13:28:49;3.30;;;3.10;;
3433;SDS011;1730;41.932;25.548;2023-11-19T13:31:14;3.37;;;3.17;;
3433;SDS011;1730;41.932;25.548;2023-11-19T13:33:40;3.50;;;3.30;;
3433;SDS011;1730;41.932;25.548;2023-11-19T13:36:07;3.83;;;3.43;;
3433;SDS011;1730;41.932;25.548;2023-11-19T13:38:35;4.53;;;4.23;;
3433;SDS011;1730;41.932;25.548;2023-11-19T13:41:04;4.07;;;3.77;;
3433;SDS011;1730;41.932;25.548;2023-11-19T13:43:30;4.00;;;3.70;;
3433;SDS011;1730;41.932;25.548;2023-11-19T13:45:57;4.10;;;3.80;;
3433;SDS011;1730;41.932;25.548;2023-11-19T13:48:24;3.10;;;2.90;;
3433;SDS011;1730;41.932;25.548;2023-11-19T13:50:50;4.03;;;3.73;;
3433;SDS011;1730;41.932;25.548;2023-11-19T13:53:15;3.60;;;3.40;;
3433;SDS011;1730;41.932;25.548;2023-11-19T13:55:45;3.23;;;2.93;;
3433;SDS011;1730;41.932;25.548;2023-11-19T13:58:10;4.40;;;4.00;;
3433;SDS011;1730;41.932;25.548;2023-11-19T14:00:36;3.43;;;3.23;;
3433;SDS011;1730;41.932;25.548;2023-11-19T14:03:02;3.93;;;3.67;;
3433;SDS011;1730;41.932;25.548;2023-11-19T14:05:28;3.80;;;3.60;;
3433;SDS011;1730;41.932;25.548;2023-11-19T14:07:55;3.90;;;3.60;;
3433;SDS011;1730;41.932;25.548;2023-11-19T14:10:21;4.57;;;4.27;;
3433;SDS011;1730;41.932;25.548;2023-11-19T14:12:47;5.07;;;4.67;;
3433;SDS011;1730;41.932;25.548;2023-11-19T14:15:15;4.50;;;4.20;;
3433;SDS011;1730;41.932;25.548;2023-11-19T14:17:45;4.37;;;4.17;;
3433;SDS011;1730;41.932;25.548;2023-11-19T14:20:11;4.80;;;4.50;;
3433;SDS011;1730;41.932;25.548;2023-11-19T14:22:45;6.43;;;4.70;;
3433;SDS011;1730;41.932;25.548;2023-11-19T14:25:15;4.53;;;4.17;;
3433;SDS011;1730;41.932;25.548;2023-11-19T14:27:43;4.40;;;4.00;;
3433;SDS011;1730;41.932;25.548;2023-11-19T14:30:11;4.97;;;4.57;;
3433;SDS011;1730;41.932;25.548;2023-11-19T14:32:40;4.70;;;4.27;;
3433;SDS011;1730;41.932;25.548;2023-11-19T14:35:11;5.70;;;5.20;;
3433;SDS011;1730;41.932;25.548;2023-11-19T14:37:37;6.23;;;5.73;;
3433;SDS011;1730;41.932;25.548;2023-11-19T14:40:02;8.77;;;6.90;;
3433;SDS011;1730;41.932;25.548;2023-11-19T14:42:34;9.90;;;6.63;;
3433;SDS011;1730;41.932;25.548;2023-11-19T14:45:00;9.53;;;7.00;;
3433;SDS011;1730;41.932;25.548;2023-11-19T14:47:26;6.43;;;5.93;;
3433;SDS011;1730;41.932;25.548;2023-11-19T14:49:52;8.67;;;6.53;;
3433;SDS011;1730;41.932;25.548;2023-11-19T14:52:19;13.30;;;10.03;;
3433;SDS011;1730;41.932;25.548;2023-11-19T14:54:46;7.70;;;7.03;;
3433;SDS011;1730;41.932;25.548;2023-11-19T14:57:12;7.57;;;6.77;;
3433;SDS011;1730;41.932;25.548;2023-11-19T14:59:38;6.80;;;5.67;;
3433;SDS011;1730;41.932;25.548;2023-11-19T15:02:04;7.00;;;6.30;;
3433;SDS011;1730;41.932;25.548;2023-11-19T15:04:31;4.90;;;4.60;;
3433;SDS011;1730;41.932;25.548;2023-11-19T15:06:57;5.03;;;4.67;;
3433;SDS011;1730;41.932;25.548;2023-11-19T15:09:25;4.63;;;4.23;;
3433;SDS011;1730;41.932;25.548;2023-11-19T15:12:02;5.30;;;5.00;;
3433;SDS011;1730;41.932;25.548;2023-11-19T15:14:29;5.97;;;5.47;;
3433;SDS011;1730;41.932;25.548;2023-11-19T15:16:55;5.40;;;5.00;;
3433;SDS011;1730;41.932;25.548;2023-11-19T15:19:23;5.57;;;5.17;;
3433;SDS011;1730;41.932;25.548;2023-11-19T15:21:49;5.90;;;5.50;;
3433;SDS011;1730;41.932;25.548;2023-11-19T15:24:14;5.40;;;5.00;;
3433;SDS011;1730;41.932;25.548;2023-11-19T15:26:40;6.80;;;6.20;;
3433;SDS011;1730;41.932;25.548;2023-11-19T15:29:06;6.60;;;6.03;;
3433;SDS011;1730;41.932;25.548;2023-11-19T15:31:31;5.83;;;5.33;;
3433;SDS011;1730;41.932;25.548;2023-11-19T15:33:57;5.97;;;5.57;;
3433;SDS011;1730;41.932;25.548;2023-11-19T15:36:24;6.70;;;6.07;;